sensor_id;sensor_type;location;lat;lon;timestamp;P1;durP1;ratioP1;P2;durP2;ratioP2
54261;SDS011;40174;52.364;6.452;2023-07-20T00:01:49;7.13;;;2.40;;
54261;SDS011;40174;52.364;6.452;2023-07-20T00:04:15;3.60;;;1.95;;
54261;SDS011;40174;52.364;6.452;2023-07-20T00:06:42;4.07;;;1.80;;
54261;SDS011;40174;52.364;6.452;2023-07-20T00:09:09;4.35;;;1.90;;
54261;SDS011;40174;52.364;6.452;2023-07-20T00:11:36;4.80;;;1.98;;
54261;SDS011;40174;52.364;6.452;2023-07-20T00:14:03;3.35;;;1.40;;
54261;SDS011;40174;52.364;6.452;2023-07-20T00:16:31;3.05;;;1.50;;
54261;SDS011;40174;52.364;6.452;2023-07-20T00:18:58;2.13;;;1.20;;
54261;SDS011;40174;52.364;6.452;2023-07-20T00:21:25;1.50;;;0.98;;
54261;SDS011;40174;52.364;6.452;2023-07-20T00:23:52;2.55;;;1.08;;
54261;SDS011;40174;52.364;6.452;2023-07-20T00:26:19;2.75;;;1.30;;
54261;SDS011;40174;52.364;6.452;2023-07-20T00:28:45;1.42;;;0.90;;
54261;SDS011;40174;52.364;6.452;2023-07-20T00:31:12;2.65;;;1.20;;
54261;SDS011;40174;52.364;6.452;2023-07-20T00:33:40;1.48;;;0.95;;
54261;SDS011;40174;52.364;6.452;2023-07-20T00:36:07;2.20;;;0.90;;
54261;SDS011;40174;52.364;6.452;2023-07-20T00:38:34;2.92;;;1.17;;
54261;SDS011;40174;52.364;6.452;2023-07-20T00:41:01;3.20;;;0.70;;
54261;SDS011;40174;52.364;6.452;2023-07-20T00:43:27;2.53;;;0.95;;
54261;SDS011;40174;52.364;6.452;2023-07-20T00:45:54;2.50;;;0.90;;
54261;SDS011;40174;52.364;6.452;2023-07-20T00:48:23;1.67;;;0.90;;
54261;SDS011;40174;52.364;6.452;2023-07-20T00:50:51;2.38;;;1.00;;
54261;SDS011;40174;52.364;6.452;2023-07-20T00:53:18;1.30;;;0.68;;
54261;SDS011;40174;52.364;6.452;2023-07-20T00:55:45;1.73;;;0.90;;
54261;SDS011;40174;52.364;6.452;2023-07-20T00:58:12;1.02;;;0.80;;
54261;SDS011;40174;52.364;6.452;2023-07-20T01:00:39;1.25;;;0.88;;
54261;SDS011;40174;52.364;6.452;2023-07-20T01:03:05;1.98;;;1.08;;
54261;SDS011;40174;52.364;6.452;2023-07-20T01:05:35;2.95;;;1.27;;
54261;SDS011;40174;52.364;6.452;2023-07-20T01:08:11;2.90;;;0.90;;
54261;SDS011;40174;52.364;6.452;2023-07-20T01:10:43;2.57;;;0.90;;
54261;SDS011;40174;52.364;6.452;2023-07-20T01:13:16;1.50;;;1.00;;
54261;SDS011;40174;52.364;6.452;2023-07-20T01:15:48;2.30;;;1.15;;
54261;SDS011;40174;52.364;6.452;2023-07-20T01:18:15;1.60;;;1.00;;
54261;SDS011;40174;52.364;6.452;2023-07-20T01:20:43;1.85;;;0.93;;
54261;SDS011;40174;52.364;6.452;2023-07-20T01:23:22;1.63;;;0.90;;
54261;SDS011;40174;52.364;6.452;2023-07-20T01:26:11;3.67;;;1.20;;
54261;SDS011;40174;52.364;6.452;2023-07-20T01:29:08;1.70;;;0.80;;
54261;SDS011;40174;52.364;6.452;2023-07-20T01:31:45;2.33;;;1.13;;
54261;SDS011;40174;52.364;6.452;2023-07-20T01:34:16;1.35;;;0.80;;
54261;SDS011;40174;52.364;6.452;2023-07-20T01:36:45;3.40;;;1.30;;
54261;SDS011;40174;52.364;6.452;2023-07-20T01:39:14;1.45;;;0.77;;
54261;SDS011;40174;52.364;6.452;2023-07-20T01:41:42;1.45;;;0.80;;
54261;SDS011;40174;52.364;6.452;2023-07-20T01:44:09;2.22;;;1.08;;
54261;SDS011;40174;52.364;6.452;2023-07-20T01:46:36;3.20;;;1.30;;
54261;SDS011;40174;52.364;6.452;2023-07-20T01:49:04;2.35;;;1.02;;
54261;SDS011;40174;52.364;6.452;2023-07-20T01:51:31;3.00;;;1.08;;
54261;SDS011;40174;52.364;6.452;2023-07-20T01:53:58;1.45;;;1.08;;
54261;SDS011;40174;52.364;6.452;2023-07-20T01:56:25;6.97;;;1.20;;
54261;SDS011;40174;52.364;6.452;2023-07-20T01:58:52;2.63;;;1.30;;
54261;SDS011;40174;52.364;6.452;2023-07-20T02:01:19;2.72;;;1.42;;
54261;SDS011;40174;52.364;6.452;2023-07-20T02:03:45;3.58;;;1.40;;
54261;SDS011;40174;52.364;6.452;2023-07-20T02:06:13;2.95;;;1.17;;
54261;SDS011;40174;52.364;6.452;2023-07-20T02:08:40;2.50;;;1.10;;
54261;SDS011;40174;52.364;6.452;2023-07-20T02:11:07;2.85;;;1.13;;
54261;SDS011;40174;52.364;6.452;2023-07-20T02:13:35;2.67;;;1.30;;
54261;SDS011;40174;52.364;6.452;2023-07-20T02:16:01;4.50;;;1.50;;
54261;SDS011;40174;52.364;6.452;2023-07-20T02:18:28;3.22;;;1.20;;
54261;SDS011;40174;52.364;6.452;2023-07-20T02:20:55;2.08;;;1.02;;
54261;SDS011;40174;52.364;6.452;2023-07-20T02:23:23;1.63;;;0.90;;
54261;SDS011;40174;52.364;6.452;2023-07-20T02:25:50;3.13;;;1.33;;
54261;SDS011;40174;52.364;6.452;2023-07-20T02:28:17;4.88;;;1.40;;
54261;SDS011;40174;52.364;6.452;2023-07-20T02:30:43;3.30;;;1.30;;
54261;SDS011;40174;52.364;6.452;2023-07-20T02:33:10;2.63;;;1.20;;
54261;SDS011;40174;52.364;6.452;2023-07-20T02:35:37;2.47;;;1.38;;
54261;SDS011;40174;52.364;6.452;2023-07-20T02:38:03;2.22;;;1.02;;
54261;SDS011;40174;52.364;6.452;2023-07-20T02:40:33;4.05;;;1.27;;
54261;SDS011;40174;52.364;6.452;2023-07-20T02:43:01;2.28;;;1.23;;
54261;SDS011;40174;52.364;6.452;2023-07-20T02:45:27;2.42;;;1.00;;
54261;SDS011;40174;52.364;6.452;2023-07-20T02:47:54;2.00;;;1.30;;
54261;SDS011;40174;52.364;6.452;2023-07-20T02:50:21;2.65;;;1.48;;
54261;SDS011;40174;52.364;6.452;2023-07-20T02:52:48;3.10;;;1.50;;
54261;SDS011;40174;52.364;6.452;2023-07-20T02:55:15;3.25;;;1.25;;
54261;SDS011;40174;52.364;6.452;2023-07-20T02:57:43;2.47;;;1.30;;
54261;SDS011;40174;52.364;6.452;2023-07-20T03:00:11;2.25;;;1.42;;
54261;SDS011;40174;52.364;6.452;2023-07-20T03:02:41;3.70;;;1.70;;
54261;SDS011;40174;52.364;6.452;2023-07-20T03:05:08;3.05;;;1.48;;
54261;SDS011;40174;52.364;6.452;2023-07-20T03:07:35;4.57;;;1.80;;
54261;SDS011;40174;52.364;6.452;2023-07-20T03:10:01;4.03;;;1.40;;
54261;SDS011;40174;52.364;6.452;2023-07-20T03:12:29;2.55;;;1.60;;
54261;SDS011;40174;52.364;6.452;2023-07-20T03:14:57;4.15;;;1.70;;
54261;SDS011;40174;52.364;6.452;2023-07-20T03:17:25;3.03;;;1.42;;
54261;SDS011;40174;52.364;6.452;2023-07-20T03:19:51;2.85;;;1.45;;
54261;SDS011;40174;52.364;6.452;2023-07-20T03:22:18;4.78;;;1.90;;
54261;SDS011;40174;52.364;6.452;2023-07-20T03:24:46;3.90;;;1.63;;
54261;SDS011;40174;52.364;6.452;2023-07-20T03:27:13;2.95;;;1.40;;
54261;SDS011;40174;52.364;6.452;2023-07-20T03:29:40;3.42;;;1.60;;
54261;SDS011;40174;52.364;6.452;2023-07-20T03:32:08;3.25;;;1.55;;
54261;SDS011;40174;52.364;6.452;2023-07-20T03:34:35;3.53;;;1.80;;
54261;SDS011;40174;52.364;6.452;2023-07-20T03:37:02;2.83;;;1.70;;
54261;SDS011;40174;52.364;6.452;2023-07-20T03:39:29;5.25;;;2.50;;
54261;SDS011;40174;52.364;6.452;2023-07-20T03:41:57;4.18;;;1.88;;
54261;SDS011;40174;52.364;6.452;2023-07-20T03:44:24;4.75;;;2.15;;
54261;SDS011;40174;52.364;6.452;2023-07-20T03:46:50;5.55;;;2.17;;
54261;SDS011;40174;52.364;6.452;2023-07-20T03:49:18;5.35;;;2.17;;
54261;SDS011;40174;52.364;6.452;2023-07-20T03:51:45;5.55;;;2.22;;
54261;SDS011;40174;52.364;6.452;2023-07-20T03:54:12;5.88;;;2.20;;
54261;SDS011;40174;52.364;6.452;2023-07-20T03:56:38;5.03;;;2.28;;
54261;SDS011;40174;52.364;6.452;2023-07-20T03:59:05;5.47;;;2.28;;
54261;SDS011;40174;52.364;6.452;2023-07-20T04:01:32;5.60;;;2.15;;
54261;SDS011;40174;52.364;6.452;2023-07-20T04:04:01;5.05;;;2.15;;
54261;SDS011;40174;52.364;6.452;2023-07-20T04:06:33;4.78;;;2.28;;
54261;SDS011;40174;52.364;6.452;2023-07-20T04:08:59;4.53;;;2.28;;
54261;SDS011;40174;52.364;6.452;2023-07-20T04:11:26;4.45;;;2.05;;
54261;SDS011;40174;52.364;6.452;2023-07-20T04:13:53;5.22;;;1.90;;
54261;SDS011;40174;52.364;6.452;2023-07-20T04:16:21;4.72;;;1.85;;
54261;SDS011;40174;52.364;6.452;2023-07-20T04:18:48;5.18;;;2.20;;
54261;SDS011;40174;52.364;6.452;2023-07-20T04:21:14;2.85;;;1.38;;
54261;SDS011;40174;52.364;6.452;2023-07-20T04:23:43;3.90;;;1.83;;
54261;SDS011;40174;52.364;6.452;2023-07-20T04:26:10;4.78;;;1.70;;
54261;SDS011;40174;52.364;6.452;2023-07-20T04:28:37;5.40;;;1.75;;
54261;SDS011;40174;52.364;6.452;2023-07-20T04:31:11;4.18;;;1.88;;
54261;SDS011;40174;52.364;6.452;2023-07-20T04:33:38;2.90;;;1.55;;
54261;SDS011;40174;52.364;6.452;2023-07-20T04:36:05;2.75;;;1.65;;
54261;SDS011;40174;52.364;6.452;2023-07-20T04:38:34;3.65;;;1.55;;
54261;SDS011;40174;52.364;6.452;2023-07-20T04:41:11;2.95;;;1.67;;
54261;SDS011;40174;52.364;6.452;2023-07-20T04:43:41;3.05;;;1.48;;
54261;SDS011;40174;52.364;6.452;2023-07-20T04:46:09;3.55;;;1.58;;
54261;SDS011;40174;52.364;6.452;2023-07-20T04:48:37;4.10;;;1.80;;
54261;SDS011;40174;52.364;6.452;2023-07-20T04:51:05;2.75;;;1.50;;
54261;SDS011;40174;52.364;6.452;2023-07-20T04:53:32;2.65;;;1.27;;
54261;SDS011;40174;52.364;6.452;2023-07-20T04:56:00;3.40;;;1.70;;
54261;SDS011;40174;52.364;6.452;2023-07-20T04:58:29;2.95;;;1.52;;
54261;SDS011;40174;52.364;6.452;2023-07-20T05:00:55;3.78;;;1.60;;
54261;SDS011;40174;52.364;6.452;2023-07-20T05:03:22;4.03;;;1.63;;
54261;SDS011;40174;52.364;6.452;2023-07-20T05:05:49;3.10;;;1.50;;
54261;SDS011;40174;52.364;6.452;2023-07-20T05:08:16;4.82;;;1.80;;
54261;SDS011;40174;52.364;6.452;2023-07-20T05:10:43;1.83;;;1.40;;
54261;SDS011;40174;52.364;6.452;2023-07-20T05:13:10;3.22;;;1.52;;
54261;SDS011;40174;52.364;6.452;2023-07-20T05:15:38;4.78;;;1.85;;
54261;SDS011;40174;52.364;6.452;2023-07-20T05:18:09;4.47;;;2.13;;
54261;SDS011;40174;52.364;6.452;2023-07-20T05:20:36;4.00;;;1.85;;
54261;SDS011;40174;52.364;6.452;2023-07-20T05:23:02;3.45;;;2.10;;
54261;SDS011;40174;52.364;6.452;2023-07-20T05:25:29;4.57;;;2.15;;
54261;SDS011;40174;52.364;6.452;2023-07-20T05:27:56;3.65;;;1.90;;
54261;SDS011;40174;52.364;6.452;2023-07-20T05:30:23;5.70;;;2.05;;
54261;SDS011;40174;52.364;6.452;2023-07-20T05:32:51;6.38;;;2.25;;
54261;SDS011;40174;52.364;6.452;2023-07-20T05:35:19;3.45;;;1.70;;
54261;SDS011;40174;52.364;6.452;2023-07-20T05:37:47;5.60;;;2.10;;
54261;SDS011;40174;52.364;6.452;2023-07-20T05:40:14;6.78;;;2.75;;
54261;SDS011;40174;52.364;6.452;2023-07-20T05:42:44;6.68;;;2.50;;
54261;SDS011;40174;52.364;6.452;2023-07-20T05:45:11;7.10;;;2.85;;
54261;SDS011;40174;52.364;6.452;2023-07-20T05:47:37;5.18;;;2.58;;
54261;SDS011;40174;52.364;6.452;2023-07-20T05:50:06;6.60;;;2.38;;
54261;SDS011;40174;52.364;6.452;2023-07-20T05:52:33;7.15;;;2.70;;
54261;SDS011;40174;52.364;6.452;2023-07-20T05:55:00;3.80;;;1.98;;
54261;SDS011;40174;52.364;6.452;2023-07-20T05:57:26;4.95;;;2.45;;
54261;SDS011;40174;52.364;6.452;2023-07-20T05:59:53;5.22;;;2.20;;
54261;SDS011;40174;52.364;6.452;2023-07-20T06:02:20;4.13;;;2.38;;
54261;SDS011;40174;52.364;6.452;2023-07-20T06:04:46;5.55;;;2.22;;
54261;SDS011;40174;52.364;6.452;2023-07-20T06:07:14;7.25;;;2.22;;
54261;SDS011;40174;52.364;6.452;2023-07-20T06:09:41;3.42;;;1.88;;
54261;SDS011;40174;52.364;6.452;2023-07-20T06:12:08;4.45;;;1.83;;
54261;SDS011;40174;52.364;6.452;2023-07-20T06:14:35;3.55;;;1.88;;
54261;SDS011;40174;52.364;6.452;2023-07-20T06:17:02;4.28;;;1.88;;
54261;SDS011;40174;52.364;6.452;2023-07-20T06:19:29;6.47;;;2.00;;
54261;SDS011;40174;52.364;6.452;2023-07-20T06:21:55;4.22;;;1.90;;
54261;SDS011;40174;52.364;6.452;2023-07-20T06:24:23;3.45;;;1.60;;
54261;SDS011;40174;52.364;6.452;2023-07-20T06:26:50;3.95;;;1.88;;
54261;SDS011;40174;52.364;6.452;2023-07-20T06:29:17;4.47;;;1.90;;
54261;SDS011;40174;52.364;6.452;2023-07-20T06:31:44;4.13;;;1.95;;
54261;SDS011;40174;52.364;6.452;2023-07-20T06:34:11;3.47;;;1.80;;
54261;SDS011;40174;52.364;6.452;2023-07-20T06:36:37;4.60;;;2.20;;
54261;SDS011;40174;52.364;6.452;2023-07-20T06:39:04;4.40;;;1.30;;
54261;SDS011;40174;52.364;6.452;2023-07-20T06:41:32;4.40;;;1.45;;
54261;SDS011;40174;52.364;6.452;2023-07-20T06:43:59;6.05;;;1.60;;
54261;SDS011;40174;52.364;6.452;2023-07-20T06:46:25;3.72;;;1.33;;
54261;SDS011;40174;52.364;6.452;2023-07-20T06:48:53;4.93;;;1.13;;
54261;SDS011;40174;52.364;6.452;2023-07-20T06:51:20;3.08;;;1.60;;
54261;SDS011;40174;52.364;6.452;2023-07-20T06:53:47;3.50;;;1.40;;
54261;SDS011;40174;52.364;6.452;2023-07-20T06:56:13;2.03;;;0.85;;
54261;SDS011;40174;52.364;6.452;2023-07-20T06:58:41;1.70;;;0.65;;
54261;SDS011;40174;52.364;6.452;2023-07-20T07:01:08;1.52;;;0.80;;
54261;SDS011;40174;52.364;6.452;2023-07-20T07:03:35;0.93;;;0.60;;
54261;SDS011;40174;52.364;6.452;2023-07-20T07:06:02;2.03;;;0.73;;
54261;SDS011;40174;52.364;6.452;2023-07-20T07:08:29;1.50;;;0.55;;
54261;SDS011;40174;52.364;6.452;2023-07-20T07:10:56;2.40;;;1.10;;
54261;SDS011;40174;52.364;6.452;2023-07-20T07:13:22;1.02;;;0.70;;
54261;SDS011;40174;52.364;6.452;2023-07-20T07:15:51;1.15;;;0.70;;
54261;SDS011;40174;52.364;6.452;2023-07-20T07:18:18;1.30;;;0.65;;
54261;SDS011;40174;52.364;6.452;2023-07-20T07:20:54;2.80;;;0.63;;
54261;SDS011;40174;52.364;6.452;2023-07-20T07:23:21;1.17;;;0.82;;
54261;SDS011;40174;52.364;6.452;2023-07-20T07:25:47;1.17;;;0.70;;
54261;SDS011;40174;52.364;6.452;2023-07-20T07:28:14;1.60;;;0.63;;
54261;SDS011;40174;52.364;6.452;2023-07-20T07:30:41;1.88;;;0.50;;
54261;SDS011;40174;52.364;6.452;2023-07-20T07:33:09;1.17;;;0.60;;
54261;SDS011;40174;52.364;6.452;2023-07-20T07:35:36;0.60;;;0.50;;
54261;SDS011;40174;52.364;6.452;2023-07-20T07:38:03;1.42;;;0.60;;
54261;SDS011;40174;52.364;6.452;2023-07-20T07:40:30;1.15;;;0.50;;
54261;SDS011;40174;52.364;6.452;2023-07-20T07:42:57;0.82;;;0.57;;
54261;SDS011;40174;52.364;6.452;2023-07-20T07:45:23;1.05;;;0.43;;
54261;SDS011;40174;52.364;6.452;2023-07-20T07:47:50;1.23;;;0.50;;
54261;SDS011;40174;52.364;6.452;2023-07-20T07:50:18;3.70;;;0.70;;
54261;SDS011;40174;52.364;6.452;2023-07-20T07:52:45;1.27;;;0.60;;
54261;SDS011;40174;52.364;6.452;2023-07-20T07:55:12;0.82;;;0.47;;
54261;SDS011;40174;52.364;6.452;2023-07-20T07:57:38;0.50;;;0.50;;
54261;SDS011;40174;52.364;6.452;2023-07-20T08:00:05;1.00;;;0.50;;
54261;SDS011;40174;52.364;6.452;2023-07-20T08:02:36;2.05;;;0.40;;
54261;SDS011;40174;52.364;6.452;2023-07-20T08:05:03;0.95;;;0.50;;
54261;SDS011;40174;52.364;6.452;2023-07-20T08:07:32;0.85;;;0.68;;
54261;SDS011;40174;52.364;6.452;2023-07-20T08:09:58;2.67;;;0.30;;
54261;SDS011;40174;52.364;6.452;2023-07-20T08:12:25;1.45;;;0.60;;
54261;SDS011;40174;52.364;6.452;2023-07-20T08:14:52;0.40;;;0.40;;
54261;SDS011;40174;52.364;6.452;2023-07-20T08:17:19;1.65;;;0.50;;
54261;SDS011;40174;52.364;6.452;2023-07-20T08:19:46;0.40;;;0.40;;
54261;SDS011;40174;52.364;6.452;2023-07-20T08:22:13;1.00;;;0.77;;
54261;SDS011;40174;52.364;6.452;2023-07-20T08:24:41;1.98;;;0.40;;
54261;SDS011;40174;52.364;6.452;2023-07-20T08:27:08;1.15;;;0.60;;
54261;SDS011;40174;52.364;6.452;2023-07-20T08:29:35;0.50;;;0.50;;
54261;SDS011;40174;52.364;6.452;2023-07-20T08:32:02;0.70;;;0.60;;
54261;SDS011;40174;52.364;6.452;2023-07-20T08:34:29;1.40;;;0.52;;
54261;SDS011;40174;52.364;6.452;2023-07-20T08:36:56;0.43;;;0.40;;
54261;SDS011;40174;52.364;6.452;2023-07-20T08:39:23;1.30;;;0.50;;
54261;SDS011;40174;52.364;6.452;2023-07-20T08:41:51;1.00;;;0.55;;
54261;SDS011;40174;52.364;6.452;2023-07-20T08:44:18;1.02;;;0.50;;
54261;SDS011;40174;52.364;6.452;2023-07-20T08:46:45;1.83;;;0.40;;
54261;SDS011;40174;52.364;6.452;2023-07-20T08:49:15;0.40;;;0.40;;
54261;SDS011;40174;52.364;6.452;2023-07-20T08:51:44;0.68;;;0.40;;
54261;SDS011;40174;52.364;6.452;2023-07-20T08:54:12;0.40;;;0.35;;
54261;SDS011;40174;52.364;6.452;2023-07-20T08:56:40;0.40;;;0.32;;
54261;SDS011;40174;52.364;6.452;2023-07-20T08:59:10;1.33;;;0.50;;
54261;SDS011;40174;52.364;6.452;2023-07-20T09:01:39;0.45;;;0.30;;
54261;SDS011;40174;52.364;6.452;2023-07-20T09:04:06;0.57;;;0.40;;
54261;SDS011;40174;52.364;6.452;2023-07-20T09:06:33;1.67;;;0.50;;
54261;SDS011;40174;52.364;6.452;2023-07-20T09:09:01;1.05;;;0.43;;
54261;SDS011;40174;52.364;6.452;2023-07-20T09:11:28;1.10;;;0.30;;
54261;SDS011;40174;52.364;6.452;2023-07-20T09:14:04;0.68;;;0.47;;
54261;SDS011;40174;52.364;6.452;2023-07-20T09:16:33;0.98;;;0.30;;
54261;SDS011;40174;52.364;6.452;2023-07-20T09:19:14;2.42;;;0.43;;
54261;SDS011;40174;52.364;6.452;2023-07-20T09:21:41;2.22;;;0.40;;
54261;SDS011;40174;52.364;6.452;2023-07-20T09:24:10;0.65;;;0.30;;
54261;SDS011;40174;52.364;6.452;2023-07-20T09:26:40;1.05;;;0.40;;
54261;SDS011;40174;52.364;6.452;2023-07-20T09:29:07;1.75;;;0.40;;
54261;SDS011;40174;52.364;6.452;2023-07-20T09:31:36;4.65;;;0.40;;
54261;SDS011;40174;52.364;6.452;2023-07-20T09:34:04;0.47;;;0.30;;
54261;SDS011;40174;52.364;6.452;2023-07-20T09:36:32;0.50;;;0.30;;
54261;SDS011;40174;52.364;6.452;2023-07-20T09:39:00;0.80;;;0.22;;
54261;SDS011;40174;52.364;6.452;2023-07-20T09:41:29;0.30;;;0.22;;
54261;SDS011;40174;52.364;6.452;2023-07-20T09:43:56;1.00;;;0.35;;
54261;SDS011;40174;52.364;6.452;2023-07-20T09:46:22;1.65;;;0.40;;
54261;SDS011;40174;52.364;6.452;2023-07-20T09:48:53;0.32;;;0.30;;
54261;SDS011;40174;52.364;6.452;2023-07-20T09:51:21;0.38;;;0.35;;
54261;SDS011;40174;52.364;6.452;2023-07-20T09:53:49;0.57;;;0.35;;
54261;SDS011;40174;52.364;6.452;2023-07-20T09:56:18;1.67;;;0.40;;
54261;SDS011;40174;52.364;6.452;2023-07-20T09:58:48;0.82;;;0.40;;
54261;SDS011;40174;52.364;6.452;2023-07-20T10:01:15;1.08;;;0.40;;
54261;SDS011;40174;52.364;6.452;2023-07-20T10:03:46;0.52;;;0.35;;
54261;SDS011;40174;52.364;6.452;2023-07-20T10:06:17;2.85;;;0.47;;
54261;SDS011;40174;52.364;6.452;2023-07-20T10:08:47;0.57;;;0.40;;
54261;SDS011;40174;52.364;6.452;2023-07-20T10:11:15;1.17;;;0.43;;
54261;SDS011;40174;52.364;6.452;2023-07-20T10:13:42;0.50;;;0.35;;
54261;SDS011;40174;52.364;6.452;2023-07-20T10:16:10;0.40;;;0.40;;
54261;SDS011;40174;52.364;6.452;2023-07-20T10:18:39;0.50;;;0.47;;
54261;SDS011;40174;52.364;6.452;2023-07-20T10:21:13;0.65;;;0.40;;
54261;SDS011;40174;52.364;6.452;2023-07-20T10:23:43;0.30;;;0.30;;
54261;SDS011;40174;52.364;6.452;2023-07-20T10:26:11;0.60;;;0.40;;
54261;SDS011;40174;52.364;6.452;2023-07-20T10:28:39;1.33;;;0.40;;
54261;SDS011;40174;52.364;6.452;2023-07-20T10:31:07;0.85;;;0.55;;
54261;SDS011;40174;52.364;6.452;2023-07-20T10:33:34;0.88;;;0.45;;
54261;SDS011;40174;52.364;6.452;2023-07-20T10:36:02;0.63;;;0.32;;
54261;SDS011;40174;52.364;6.452;2023-07-20T10:38:41;0.88;;;0.50;;
54261;SDS011;40174;52.364;6.452;2023-07-20T10:41:17;0.65;;;0.52;;
54261;SDS011;40174;52.364;6.452;2023-07-20T10:43:45;1.67;;;0.40;;
54261;SDS011;40174;52.364;6.452;2023-07-20T10:46:13;0.30;;;0.30;;
54261;SDS011;40174;52.364;6.452;2023-07-20T10:48:58;0.70;;;0.52;;
54261;SDS011;40174;52.364;6.452;2023-07-20T10:51:26;0.30;;;0.30;;
54261;SDS011;40174;52.364;6.452;2023-07-20T10:53:54;0.80;;;0.43;;
54261;SDS011;40174;52.364;6.452;2023-07-20T10:56:24;0.55;;;0.38;;
54261;SDS011;40174;52.364;6.452;2023-07-20T10:58:55;0.82;;;0.30;;
54261;SDS011;40174;52.364;6.452;2023-07-20T11:01:27;0.93;;;0.40;;
54261;SDS011;40174;52.364;6.452;2023-07-20T11:03:56;0.32;;;0.32;;
54261;SDS011;40174;52.364;6.452;2023-07-20T11:06:31;0.85;;;0.35;;
54261;SDS011;40174;52.364;6.452;2023-07-20T11:09:05;0.55;;;0.43;;
54261;SDS011;40174;52.364;6.452;2023-07-20T11:11:36;0.77;;;0.30;;
54261;SDS011;40174;52.364;6.452;2023-07-20T11:14:04;2.95;;;0.70;;
54261;SDS011;40174;52.364;6.452;2023-07-20T11:16:34;0.93;;;0.32;;
54261;SDS011;40174;52.364;6.452;2023-07-20T11:19:03;1.02;;;0.40;;
54261;SDS011;40174;52.364;6.452;2023-07-20T11:21:35;1.73;;;0.40;;
54261;SDS011;40174;52.364;6.452;2023-07-20T11:24:05;0.77;;;0.40;;
54261;SDS011;40174;52.364;6.452;2023-07-20T11:26:45;0.30;;;0.30;;
54261;SDS011;40174;52.364;6.452;2023-07-20T11:29:13;0.47;;;0.30;;
54261;SDS011;40174;52.364;6.452;2023-07-20T11:31:40;0.75;;;0.40;;
54261;SDS011;40174;52.364;6.452;2023-07-20T11:34:09;0.60;;;0.30;;
54261;SDS011;40174;52.364;6.452;2023-07-20T11:36:39;0.60;;;0.32;;
54261;SDS011;40174;52.364;6.452;2023-07-20T11:39:09;0.73;;;0.40;;
54261;SDS011;40174;52.364;6.452;2023-07-20T11:41:36;0.45;;;0.30;;
54261;SDS011;40174;52.364;6.452;2023-07-20T11:44:04;0.30;;;0.30;;
54261;SDS011;40174;52.364;6.452;2023-07-20T11:46:32;1.13;;;0.55;;
54261;SDS011;40174;52.364;6.452;2023-07-20T11:48:59;0.95;;;0.60;;
54261;SDS011;40174;52.364;6.452;2023-07-20T11:51:27;0.32;;;0.28;;
54261;SDS011;40174;52.364;6.452;2023-07-20T11:53:55;2.13;;;0.60;;
54261;SDS011;40174;52.364;6.452;2023-07-20T11:56:23;1.02;;;0.32;;
54261;SDS011;40174;52.364;6.452;2023-07-20T11:58:54;0.60;;;0.40;;
54261;SDS011;40174;52.364;6.452;2023-07-20T12:01:24;0.52;;;0.40;;
54261;SDS011;40174;52.364;6.452;2023-07-20T12:03:54;1.90;;;0.30;;
54261;SDS011;40174;52.364;6.452;2023-07-20T12:06:22;1.00;;;0.52;;
54261;SDS011;40174;52.364;6.452;2023-07-20T12:08:50;0.70;;;0.50;;
54261;SDS011;40174;52.364;6.452;2023-07-20T12:11:31;2.75;;;0.40;;
54261;SDS011;40174;52.364;6.452;2023-07-20T12:13:58;0.47;;;0.40;;
54261;SDS011;40174;52.364;6.452;2023-07-20T12:16:26;0.50;;;0.50;;
54261;SDS011;40174;52.364;6.452;2023-07-20T12:18:58;0.20;;;0.20;;
54261;SDS011;40174;52.364;6.452;2023-07-20T12:21:26;0.70;;;0.40;;
54261;SDS011;40174;52.364;6.452;2023-07-20T12:23:52;0.57;;;0.40;;
54261;SDS011;40174;52.364;6.452;2023-07-20T12:26:22;0.35;;;0.30;;
54261;SDS011;40174;52.364;6.452;2023-07-20T12:28:51;0.60;;;0.40;;
54261;SDS011;40174;52.364;6.452;2023-07-20T12:31:18;0.43;;;0.40;;
54261;SDS011;40174;52.364;6.452;2023-07-20T12:33:46;0.43;;;0.40;;
54261;SDS011;40174;52.364;6.452;2023-07-20T12:36:13;1.52;;;0.80;;
54261;SDS011;40174;52.364;6.452;2023-07-20T12:38:40;0.50;;;0.50;;
54261;SDS011;40174;52.364;6.452;2023-07-20T12:41:07;1.05;;;0.50;;
54261;SDS011;40174;52.364;6.452;2023-07-20T12:43:34;0.40;;;0.40;;
54261;SDS011;40174;52.364;6.452;2023-07-20T12:46:02;1.13;;;0.45;;
54261;SDS011;40174;52.364;6.452;2023-07-20T12:48:28;1.60;;;0.50;;
54261;SDS011;40174;52.364;6.452;2023-07-20T12:50:55;0.80;;;0.40;;
54261;SDS011;40174;52.364;6.452;2023-07-20T12:53:22;0.40;;;0.40;;
54261;SDS011;40174;52.364;6.452;2023-07-20T12:55:48;2.85;;;0.50;;
54261;SDS011;40174;52.364;6.452;2023-07-20T12:58:15;0.75;;;0.40;;
54261;SDS011;40174;52.364;6.452;2023-07-20T13:00:42;1.83;;;0.50;;
54261;SDS011;40174;52.364;6.452;2023-07-20T13:03:10;3.85;;;0.60;;
54261;SDS011;40174;52.364;6.452;2023-07-20T13:05:37;1.17;;;0.40;;
54261;SDS011;40174;52.364;6.452;2023-07-20T13:08:03;0.80;;;0.50;;
54261;SDS011;40174;52.364;6.452;2023-07-20T13:10:31;0.32;;;0.32;;
54261;SDS011;40174;52.364;6.452;2023-07-20T13:12:57;1.88;;;0.60;;
54261;SDS011;40174;52.364;6.452;2023-07-20T13:15:29;0.50;;;0.40;;
54261;SDS011;40174;52.364;6.452;2023-07-20T13:17:57;0.85;;;0.40;;
54261;SDS011;40174;52.364;6.452;2023-07-20T13:20:25;3.53;;;0.50;;
54261;SDS011;40174;52.364;6.452;2023-07-20T13:22:53;0.40;;;0.40;;
54261;SDS011;40174;52.364;6.452;2023-07-20T13:25:19;0.50;;;0.50;;
54261;SDS011;40174;52.364;6.452;2023-07-20T13:27:46;0.80;;;0.60;;
54261;SDS011;40174;52.364;6.452;2023-07-20T13:30:13;2.00;;;0.70;;
54261;SDS011;40174;52.364;6.452;2023-07-20T13:32:41;1.48;;;0.80;;
54261;SDS011;40174;52.364;6.452;2023-07-20T13:35:08;1.30;;;0.70;;
54261;SDS011;40174;52.364;6.452;2023-07-20T13:37:36;1.67;;;0.47;;
54261;SDS011;40174;52.364;6.452;2023-07-20T13:40:04;2.35;;;0.95;;
54261;SDS011;40174;52.364;6.452;2023-07-20T13:42:31;1.05;;;0.52;;
54261;SDS011;40174;52.364;6.452;2023-07-20T13:44:58;0.98;;;0.60;;
54261;SDS011;40174;52.364;6.452;2023-07-20T13:47:25;0.95;;;0.80;;
54261;SDS011;40174;52.364;6.452;2023-07-20T13:49:52;0.70;;;0.50;;
54261;SDS011;40174;52.364;6.452;2023-07-20T13:52:19;0.73;;;0.40;;
54261;SDS011;40174;52.364;6.452;2023-07-20T13:54:47;0.45;;;0.45;;
54261;SDS011;40174;52.364;6.452;2023-07-20T13:57:14;0.82;;;0.38;;
54261;SDS011;40174;52.364;6.452;2023-07-20T13:59:41;1.15;;;0.55;;
54261;SDS011;40174;52.364;6.452;2023-07-20T14:02:08;0.57;;;0.47;;
54261;SDS011;40174;52.364;6.452;2023-07-20T14:04:35;0.45;;;0.45;;
54261;SDS011;40174;52.364;6.452;2023-07-20T14:07:02;0.82;;;0.50;;
54261;SDS011;40174;52.364;6.452;2023-07-20T14:09:29;1.00;;;0.40;;
54261;SDS011;40174;52.364;6.452;2023-07-20T14:11:57;1.85;;;0.65;;
54261;SDS011;40174;52.364;6.452;2023-07-20T14:14:24;0.40;;;0.40;;
54261;SDS011;40174;52.364;6.452;2023-07-20T14:16:50;0.60;;;0.50;;
54261;SDS011;40174;52.364;6.452;2023-07-20T14:19:17;0.75;;;0.47;;
54261;SDS011;40174;52.364;6.452;2023-07-20T14:21:43;0.60;;;0.40;;
54261;SDS011;40174;52.364;6.452;2023-07-20T14:24:10;0.57;;;0.50;;
54261;SDS011;40174;52.364;6.452;2023-07-20T14:26:37;0.70;;;0.50;;
54261;SDS011;40174;52.364;6.452;2023-07-20T14:29:05;1.92;;;0.45;;
54261;SDS011;40174;52.364;6.452;2023-07-20T14:31:32;0.90;;;0.50;;
54261;SDS011;40174;52.364;6.452;2023-07-20T14:33:58;1.05;;;0.50;;
54261;SDS011;40174;52.364;6.452;2023-07-20T14:36:25;1.02;;;0.88;;
54261;SDS011;40174;52.364;6.452;2023-07-20T14:38:52;1.55;;;0.63;;
54261;SDS011;40174;52.364;6.452;2023-07-20T14:41:19;2.17;;;0.50;;
54261;SDS011;40174;52.364;6.452;2023-07-20T14:43:46;0.95;;;0.50;;
54261;SDS011;40174;52.364;6.452;2023-07-20T14:46:14;0.75;;;0.40;;
54261;SDS011;40174;52.364;6.452;2023-07-20T14:48:41;0.40;;;0.40;;
54261;SDS011;40174;52.364;6.452;2023-07-20T14:51:07;1.02;;;0.40;;
54261;SDS011;40174;52.364;6.452;2023-07-20T14:53:34;1.48;;;0.38;;